Aviation Digital Data Service (ADDS)

Output produced by METARs form (1515 UTC 20 March 2019)
found at http://www.aviationweather.gov/metar/data/
 
Forecast for: VVPQ (PHU QUOC , VN)
Text: TAF VVPQ 201100Z 2012/2112 VRB02KT 9999 SCT017
Forecast period: 1200 UTC 20 March 2019 to 0100 UTC 21 March 2019
Forecast type: FROM: standard forecast or significant change
Winds: variable direction winds at 2 MPH (2 knots; 1.0 m/s)
Visibility: 6 or more miles 10+ km)
Ceiling: at least 12,000 feet AGL
Clouds: scattered clouds at 1700 feet AGL
Weather: no significant weather forecast for this period
Text: BECMG 2101/2102 11008KT
Forecast period: 0100 to 1200 UTC 21 March 2019
Forecast type: BECOMING: Conditions expected to become as follows by 0200 UTC 21 March 2019
Winds: from the ESE (110 degrees) at 9 MPH (8 knots; 4.1 m/s)
Visibility: 6 or more miles 10+ km)
Ceiling: at least 12,000 feet AGL
Clouds: scattered clouds at 1700 feet AGL
Weather: no significant weather forecast for this period